sensor_id;sensor_type;location;lat;lon;timestamp;temperature;humidity
22145;DHT22;11238;48.730;11.566;2023-03-03T00:01:52;3.00;99.90
22145;DHT22;11238;48.730;11.566;2023-03-03T00:04:39;2.90;99.90
22145;DHT22;11238;48.730;11.566;2023-03-03T00:07:05;2.80;99.90
22145;DHT22;11238;48.730;11.566;2023-03-03T00:09:31;2.80;99.90
22145;DHT22;11238;48.730;11.566;2023-03-03T00:11:58;2.80;99.90
22145;DHT22;11238;48.730;11.566;2023-03-03T00:14:30;2.90;99.90
22145;DHT22;11238;48.730;11.566;2023-03-03T00:16:57;2.90;99.90
22145;DHT22;11238;48.730;11.566;2023-03-03T00:19:25;2.80;99.90
22145;DHT22;11238;48.730;11.566;2023-03-03T00:21:52;2.70;99.90
22145;DHT22;11238;48.730;11.566;2023-03-03T00:24:22;2.60;99.90
22145;DHT22;11238;48.730;11.566;2023-03-03T00:26:51;2.70;99.90
22145;DHT22;11238;48.730;11.566;2023-03-03T00:29:28;2.70;99.90
22145;DHT22;11238;48.730;11.566;2023-03-03T00:34:43;2.70;99.90
22145;DHT22;11238;48.730;11.566;2023-03-03T00:37:26;2.70;99.90
22145;DHT22;11238;48.730;11.566;2023-03-03T00:40:02;2.70;99.90
22145;DHT22;11238;48.730;11.566;2023-03-03T00:42:34;2.30;99.90
22145;DHT22;11238;48.730;11.566;2023-03-03T00:45:00;2.20;99.90
22145;DHT22;11238;48.730;11.566;2023-03-03T00:47:37;2.10;99.90
22145;DHT22;11238;48.730;11.566;2023-03-03T00:52:40;2.10;99.90
22145;DHT22;11238;48.730;11.566;2023-03-03T00:55:09;2.10;99.90
22145;DHT22;11238;48.730;11.566;2023-03-03T00:57:35;2.10;99.90
22145;DHT22;11238;48.730;11.566;2023-03-03T01:00:07;2.20;99.90
22145;DHT22;11238;48.730;11.566;2023-03-03T01:02:33;2.20;99.90
22145;DHT22;11238;48.730;11.566;2023-03-03T01:04:59;2.00;99.90
22145;DHT22;11238;48.730;11.566;2023-03-03T01:07:24;1.90;99.90
22145;DHT22;11238;48.730;11.566;2023-03-03T01:09:50;1.90;99.90
22145;DHT22;11238;48.730;11.566;2023-03-03T01:12:16;1.90;99.90
22145;DHT22;11238;48.730;11.566;2023-03-03T01:14:42;1.90;99.90
22145;DHT22;11238;48.730;11.566;2023-03-03T01:17:10;1.80;99.90
22145;DHT22;11238;48.730;11.566;2023-03-03T01:19:36;1.80;99.90
22145;DHT22;11238;48.730;11.566;2023-03-03T01:22:02;1.80;99.90
22145;DHT22;11238;48.730;11.566;2023-03-03T01:24:28;1.70;99.90
22145;DHT22;11238;48.730;11.566;2023-03-03T01:26:54;1.70;99.90
22145;DHT22;11238;48.730;11.566;2023-03-03T01:29:21;1.70;99.90
22145;DHT22;11238;48.730;11.566;2023-03-03T01:31:47;1.60;99.90
22145;DHT22;11238;48.730;11.566;2023-03-03T01:34:13;1.60;99.90
22145;DHT22;11238;48.730;11.566;2023-03-03T01:36:39;1.50;99.90
22145;DHT22;11238;48.730;11.566;2023-03-03T01:39:05;1.40;99.90
22145;DHT22;11238;48.730;11.566;2023-03-03T01:41:32;1.30;99.90
22145;DHT22;11238;48.730;11.566;2023-03-03T01:43:58;1.20;99.90
22145;DHT22;11238;48.730;11.566;2023-03-03T01:49:35;1.30;99.90
22145;DHT22;11238;48.730;11.566;2023-03-03T01:52:09;1.20;99.90
22145;DHT22;11238;48.730;11.566;2023-03-03T01:54:42;1.20;99.90
22145;DHT22;11238;48.730;11.566;2023-03-03T01:57:12;1.20;99.90
22145;DHT22;11238;48.730;11.566;2023-03-03T01:59:46;1.10;99.90
22145;DHT22;11238;48.730;11.566;2023-03-03T02:02:14;1.20;99.90
22145;DHT22;11238;48.730;11.566;2023-03-03T02:04:40;1.30;99.90
22145;DHT22;11238;48.730;11.566;2023-03-03T02:07:08;1.20;99.90
22145;DHT22;11238;48.730;11.566;2023-03-03T02:09:56;1.10;99.90
22145;DHT22;11238;48.730;11.566;2023-03-03T02:12:40;1.00;99.90
22145;DHT22;11238;48.730;11.566;2023-03-03T02:15:15;0.90;99.90
22145;DHT22;11238;48.730;11.566;2023-03-03T02:17:42;0.80;99.90
22145;DHT22;11238;48.730;11.566;2023-03-03T02:23:07;0.80;99.90
22145;DHT22;11238;48.730;11.566;2023-03-03T02:25:46;0.70;99.90
22145;DHT22;11238;48.730;11.566;2023-03-03T02:28:16;0.80;99.90
22145;DHT22;11238;48.730;11.566;2023-03-03T02:30:43;0.80;99.90
22145;DHT22;11238;48.730;11.566;2023-03-03T02:33:09;0.80;99.90
22145;DHT22;11238;48.730;11.566;2023-03-03T02:35:37;0.90;99.90
22145;DHT22;11238;48.730;11.566;2023-03-03T02:46:36;0.90;99.90
22145;DHT22;11238;48.730;11.566;2023-03-03T02:49:05;0.90;99.90
22145;DHT22;11238;48.730;11.566;2023-03-03T02:51:32;0.90;99.90
22145;DHT22;11238;48.730;11.566;2023-03-03T02:53:58;0.90;99.90
22145;DHT22;11238;48.730;11.566;2023-03-03T02:56:26;0.90;99.90
22145;DHT22;11238;48.730;11.566;2023-03-03T02:58:52;0.90;99.90
22145;DHT22;11238;48.730;11.566;2023-03-03T03:01:19;0.90;99.90
22145;DHT22;11238;48.730;11.566;2023-03-03T03:03:45;1.00;99.90
22145;DHT22;11238;48.730;11.566;2023-03-03T03:06:15;1.10;99.90
22145;DHT22;11238;48.730;11.566;2023-03-03T03:08:42;1.10;99.90
22145;DHT22;11238;48.730;11.566;2023-03-03T03:11:08;1.20;99.90
22145;DHT22;11238;48.730;11.566;2023-03-03T03:13:34;1.20;99.90
22145;DHT22;11238;48.730;11.566;2023-03-03T03:16:00;1.30;99.90
22145;DHT22;11238;48.730;11.566;2023-03-03T03:18:27;1.30;99.90
22145;DHT22;11238;48.730;11.566;2023-03-03T03:20:55;1.30;99.90
22145;DHT22;11238;48.730;11.566;2023-03-03T03:23:21;1.30;99.90
22145;DHT22;11238;48.730;11.566;2023-03-03T03:25:48;1.20;99.90
22145;DHT22;11238;48.730;11.566;2023-03-03T03:28:35;1.30;99.90
22145;DHT22;11238;48.730;11.566;2023-03-03T03:31:04;1.20;99.90
22145;DHT22;11238;48.730;11.566;2023-03-03T03:33:32;1.10;99.90
22145;DHT22;11238;48.730;11.566;2023-03-03T03:35:59;1.20;99.90
22145;DHT22;11238;48.730;11.566;2023-03-03T03:38:27;1.20;99.90
22145;DHT22;11238;48.730;11.566;2023-03-03T03:40:54;1.20;99.90
22145;DHT22;11238;48.730;11.566;2023-03-03T03:43:21;1.20;99.90
22145;DHT22;11238;48.730;11.566;2023-03-03T03:45:47;1.20;99.90
22145;DHT22;11238;48.730;11.566;2023-03-03T03:48:14;1.30;99.90
22145;DHT22;11238;48.730;11.566;2023-03-03T03:50:42;1.30;99.90
22145;DHT22;11238;48.730;11.566;2023-03-03T03:53:08;1.20;99.90
22145;DHT22;11238;48.730;11.566;2023-03-03T03:55:34;1.30;99.90
22145;DHT22;11238;48.730;11.566;2023-03-03T03:58:02;1.30;99.90
22145;DHT22;11238;48.730;11.566;2023-03-03T04:00:28;1.40;99.90
22145;DHT22;11238;48.730;11.566;2023-03-03T04:02:57;1.40;99.90
22145;DHT22;11238;48.730;11.566;2023-03-03T04:05:43;1.40;99.90
22145;DHT22;11238;48.730;11.566;2023-03-03T04:08:10;1.40;99.90
22145;DHT22;11238;48.730;11.566;2023-03-03T04:10:37;1.30;99.90
22145;DHT22;11238;48.730;11.566;2023-03-03T04:13:04;1.30;99.90
22145;DHT22;11238;48.730;11.566;2023-03-03T04:15:31;1.30;99.90
22145;DHT22;11238;48.730;11.566;2023-03-03T04:17:58;1.20;99.90
22145;DHT22;11238;48.730;11.566;2023-03-03T04:20:25;1.30;99.90
22145;DHT22;11238;48.730;11.566;2023-03-03T04:22:52;1.30;99.90
22145;DHT22;11238;48.730;11.566;2023-03-03T04:25:18;1.40;99.90
22145;DHT22;11238;48.730;11.566;2023-03-03T04:27:45;1.30;99.90
22145;DHT22;11238;48.730;11.566;2023-03-03T04:30:14;1.40;99.90
22145;DHT22;11238;48.730;11.566;2023-03-03T04:32:42;1.30;99.90
22145;DHT22;11238;48.730;11.566;2023-03-03T04:35:10;1.40;99.90
22145;DHT22;11238;48.730;11.566;2023-03-03T04:37:40;1.40;99.90
22145;DHT22;11238;48.730;11.566;2023-03-03T04:40:07;1.40;99.90
22145;DHT22;11238;48.730;11.566;2023-03-03T04:42:35;1.50;99.90
22145;DHT22;11238;48.730;11.566;2023-03-03T04:45:02;1.50;99.90
22145;DHT22;11238;48.730;11.566;2023-03-03T04:47:31;1.50;99.90
22145;DHT22;11238;48.730;11.566;2023-03-03T04:49:57;1.60;99.90
22145;DHT22;11238;48.730;11.566;2023-03-03T04:52:23;1.60;99.90
22145;DHT22;11238;48.730;11.566;2023-03-03T04:54:50;1.60;99.90
22145;DHT22;11238;48.730;11.566;2023-03-03T04:57:16;1.60;99.90
22145;DHT22;11238;48.730;11.566;2023-03-03T04:59:42;1.70;99.90
22145;DHT22;11238;48.730;11.566;2023-03-03T05:02:08;1.70;99.90
22145;DHT22;11238;48.730;11.566;2023-03-03T05:04:34;1.70;99.90
22145;DHT22;11238;48.730;11.566;2023-03-03T05:06:59;1.80;99.90
22145;DHT22;11238;48.730;11.566;2023-03-03T05:09:26;1.80;99.90
22145;DHT22;11238;48.730;11.566;2023-03-03T05:11:52;1.80;99.90
22145;DHT22;11238;48.730;11.566;2023-03-03T05:14:18;1.70;99.90
22145;DHT22;11238;48.730;11.566;2023-03-03T05:16:44;1.80;99.90
22145;DHT22;11238;48.730;11.566;2023-03-03T05:19:11;1.80;99.90
22145;DHT22;11238;48.730;11.566;2023-03-03T05:21:37;1.80;99.90
22145;DHT22;11238;48.730;11.566;2023-03-03T05:24:11;1.90;99.90
22145;DHT22;11238;48.730;11.566;2023-03-03T05:26:38;1.90;99.90
22145;DHT22;11238;48.730;11.566;2023-03-03T05:29:04;1.90;99.90
22145;DHT22;11238;48.730;11.566;2023-03-03T05:31:31;2.00;99.90
22145;DHT22;11238;48.730;11.566;2023-03-03T05:33:57;2.00;99.90
22145;DHT22;11238;48.730;11.566;2023-03-03T05:36:23;2.00;99.90
22145;DHT22;11238;48.730;11.566;2023-03-03T05:38:50;2.00;99.90
22145;DHT22;11238;48.730;11.566;2023-03-03T05:41:16;2.00;99.90
22145;DHT22;11238;48.730;11.566;2023-03-03T05:44:04;1.70;99.90
22145;DHT22;11238;48.730;11.566;2023-03-03T05:46:31;1.40;99.90
22145;DHT22;11238;48.730;11.566;2023-03-03T05:48:57;1.40;99.90
22145;DHT22;11238;48.730;11.566;2023-03-03T05:51:23;1.50;99.90
22145;DHT22;11238;48.730;11.566;2023-03-03T05:53:49;1.50;99.90
22145;DHT22;11238;48.730;11.566;2023-03-03T05:56:14;1.60;99.90
22145;DHT22;11238;48.730;11.566;2023-03-03T05:58:41;1.70;99.90
22145;DHT22;11238;48.730;11.566;2023-03-03T06:01:07;1.70;99.90
22145;DHT22;11238;48.730;11.566;2023-03-03T06:03:32;1.80;99.90
22145;DHT22;11238;48.730;11.566;2023-03-03T06:05:59;1.80;99.90
22145;DHT22;11238;48.730;11.566;2023-03-03T06:08:46;1.90;99.90
22145;DHT22;11238;48.730;11.566;2023-03-03T06:11:12;1.90;99.90
22145;DHT22;11238;48.730;11.566;2023-03-03T06:13:38;1.90;99.90
22145;DHT22;11238;48.730;11.566;2023-03-03T06:16:06;1.90;99.90
22145;DHT22;11238;48.730;11.566;2023-03-03T06:18:32;2.00;99.90
22145;DHT22;11238;48.730;11.566;2023-03-03T06:20:58;2.10;99.90
22145;DHT22;11238;48.730;11.566;2023-03-03T06:23:24;2.10;99.90
22145;DHT22;11238;48.730;11.566;2023-03-03T06:25:50;2.00;99.90
22145;DHT22;11238;48.730;11.566;2023-03-03T06:28:16;1.90;99.90
22145;DHT22;11238;48.730;11.566;2023-03-03T06:30:41;1.90;99.90
22145;DHT22;11238;48.730;11.566;2023-03-03T06:33:25;2.00;99.90
22145;DHT22;11238;48.730;11.566;2023-03-03T06:36:13;2.10;99.90
22145;DHT22;11238;48.730;11.566;2023-03-03T06:38:40;2.10;99.90
22145;DHT22;11238;48.730;11.566;2023-03-03T06:41:07;2.00;99.90
22145;DHT22;11238;48.730;11.566;2023-03-03T06:43:54;2.00;99.90
22145;DHT22;11238;48.730;11.566;2023-03-03T06:46:20;2.00;99.90
22145;DHT22;11238;48.730;11.566;2023-03-03T06:48:46;1.90;99.90
22145;DHT22;11238;48.730;11.566;2023-03-03T06:53:50;2.00;99.90
22145;DHT22;11238;48.730;11.566;2023-03-03T06:56:17;2.00;99.90
22145;DHT22;11238;48.730;11.566;2023-03-03T06:58:43;2.10;99.90
22145;DHT22;11238;48.730;11.566;2023-03-03T07:01:15;2.10;99.90
22145;DHT22;11238;48.730;11.566;2023-03-03T07:03:42;2.10;99.90
22145;DHT22;11238;48.730;11.566;2023-03-03T07:06:22;2.10;99.90
22145;DHT22;11238;48.730;11.566;2023-03-03T07:08:49;2.10;99.90
22145;DHT22;11238;48.730;11.566;2023-03-03T07:11:18;2.20;99.90
22145;DHT22;11238;48.730;11.566;2023-03-03T07:13:53;2.10;99.90
22145;DHT22;11238;48.730;11.566;2023-03-03T07:16:24;2.10;99.90
22145;DHT22;11238;48.730;11.566;2023-03-03T07:18:53;2.20;99.90
22145;DHT22;11238;48.730;11.566;2023-03-03T07:21:27;2.30;99.90
22145;DHT22;11238;48.730;11.566;2023-03-03T07:23:56;2.50;99.90
22145;DHT22;11238;48.730;11.566;2023-03-03T07:26:29;2.60;99.90
22145;DHT22;11238;48.730;11.566;2023-03-03T07:29:00;2.60;99.90
22145;DHT22;11238;48.730;11.566;2023-03-03T07:31:30;2.50;99.90
22145;DHT22;11238;48.730;11.566;2023-03-03T07:34:00;2.60;99.90
22145;DHT22;11238;48.730;11.566;2023-03-03T07:36:34;2.60;99.90
22145;DHT22;11238;48.730;11.566;2023-03-03T07:39:10;2.80;99.90
22145;DHT22;11238;48.730;11.566;2023-03-03T07:41:40;3.00;99.90
22145;DHT22;11238;48.730;11.566;2023-03-03T07:44:18;3.00;99.90
22145;DHT22;11238;48.730;11.566;2023-03-03T07:46:47;3.10;99.90
22145;DHT22;11238;48.730;11.566;2023-03-03T07:54:52;3.40;99.90
22145;DHT22;11238;48.730;11.566;2023-03-03T07:57:31;3.50;99.90
22145;DHT22;11238;48.730;11.566;2023-03-03T08:00:08;3.70;99.90
22145;DHT22;11238;48.730;11.566;2023-03-03T08:03:04;3.80;99.90
22145;DHT22;11238;48.730;11.566;2023-03-03T08:05:43;3.90;99.90
22145;DHT22;11238;48.730;11.566;2023-03-03T08:10:48;4.10;99.90
22145;DHT22;11238;48.730;11.566;2023-03-03T08:13:21;3.90;99.90
22145;DHT22;11238;48.730;11.566;2023-03-03T08:15:56;4.10;99.90
22145;DHT22;11238;48.730;11.566;2023-03-03T08:18:29;4.30;99.90
22145;DHT22;11238;48.730;11.566;2023-03-03T08:21:14;4.50;99.90
22145;DHT22;11238;48.730;11.566;2023-03-03T08:23:41;4.50;99.90
22145;DHT22;11238;48.730;11.566;2023-03-03T08:26:07;4.60;99.90
22145;DHT22;11238;48.730;11.566;2023-03-03T08:28:35;4.70;99.90
22145;DHT22;11238;48.730;11.566;2023-03-03T08:31:01;4.80;99.90
22145;DHT22;11238;48.730;11.566;2023-03-03T08:33:28;4.90;99.90
22145;DHT22;11238;48.730;11.566;2023-03-03T08:35:54;4.90;99.90
22145;DHT22;11238;48.730;11.566;2023-03-03T08:38:21;5.00;99.90
22145;DHT22;11238;48.730;11.566;2023-03-03T08:41:09;5.00;99.90
22145;DHT22;11238;48.730;11.566;2023-03-03T08:43:56;5.10;99.90
22145;DHT22;11238;48.730;11.566;2023-03-03T08:46:22;5.20;99.90
22145;DHT22;11238;48.730;11.566;2023-03-03T08:48:48;5.30;99.90
22145;DHT22;11238;48.730;11.566;2023-03-03T08:51:16;5.40;99.90
22145;DHT22;11238;48.730;11.566;2023-03-03T08:53:42;5.40;99.90
22145;DHT22;11238;48.730;11.566;2023-03-03T08:56:08;5.40;99.90
22145;DHT22;11238;48.730;11.566;2023-03-03T08:58:37;5.50;99.90
22145;DHT22;11238;48.730;11.566;2023-03-03T09:01:05;5.60;99.90
22145;DHT22;11238;48.730;11.566;2023-03-03T09:03:31;5.70;99.90
22145;DHT22;11238;48.730;11.566;2023-03-03T09:05:57;5.90;99.90
22145;DHT22;11238;48.730;11.566;2023-03-03T09:08:22;6.00;99.90
22145;DHT22;11238;48.730;11.566;2023-03-03T09:10:49;6.10;99.70
22145;DHT22;11238;48.730;11.566;2023-03-03T09:13:16;6.30;99.80
22145;DHT22;11238;48.730;11.566;2023-03-03T09:15:44;6.40;99.00
22145;DHT22;11238;48.730;11.566;2023-03-03T09:18:25;6.50;98.60
22145;DHT22;11238;48.730;11.566;2023-03-03T09:20:55;6.60;98.70
22145;DHT22;11238;48.730;11.566;2023-03-03T09:23:39;6.70;98.70
22145;DHT22;11238;48.730;11.566;2023-03-03T09:31:54;6.90;96.20
22145;DHT22;11238;48.730;11.566;2023-03-03T09:34:40;6.70;96.20
22145;DHT22;11238;48.730;11.566;2023-03-03T09:37:25;6.70;96.10
22145;DHT22;11238;48.730;11.566;2023-03-03T09:39:54;6.80;96.00
22145;DHT22;11238;48.730;11.566;2023-03-03T09:45:12;7.50;96.40
22145;DHT22;11238;48.730;11.566;2023-03-03T09:48:14;7.40;94.80
22145;DHT22;11238;48.730;11.566;2023-03-03T09:53:41;7.90;93.90
22145;DHT22;11238;48.730;11.566;2023-03-03T10:10:48;8.60;92.50
22145;DHT22;11238;48.730;11.566;2023-03-03T10:13:14;8.50;90.20
22145;DHT22;11238;48.730;11.566;2023-03-03T10:18:34;8.80;92.00
22145;DHT22;11238;48.730;11.566;2023-03-03T10:21:10;9.10;91.00
22145;DHT22;11238;48.730;11.566;2023-03-03T10:26:47;9.60;89.20
22145;DHT22;11238;48.730;11.566;2023-03-03T10:34:52;9.90;85.70
22145;DHT22;11238;48.730;11.566;2023-03-03T10:43:00;9.40;87.00
22145;DHT22;11238;48.730;11.566;2023-03-03T10:46:01;9.40;86.10
22145;DHT22;11238;48.730;11.566;2023-03-03T10:48:48;9.50;85.60
22145;DHT22;11238;48.730;11.566;2023-03-03T11:05:28;10.30;81.00
22145;DHT22;11238;48.730;11.566;2023-03-03T11:08:08;10.60;81.70
22145;DHT22;11238;48.730;11.566;2023-03-03T11:16:30;11.10;80.40
22145;DHT22;11238;48.730;11.566;2023-03-03T11:25:03;11.20;75.20
22145;DHT22;11238;48.730;11.566;2023-03-03T11:28:01;11.20;80.00
22145;DHT22;11238;48.730;11.566;2023-03-03T11:30:49;11.30;78.00
22145;DHT22;11238;48.730;11.566;2023-03-03T11:38:50;11.90;76.90
22145;DHT22;11238;48.730;11.566;2023-03-03T11:41:38;12.00;76.10
22145;DHT22;11238;48.730;11.566;2023-03-03T11:44:26;11.90;74.00
22145;DHT22;11238;48.730;11.566;2023-03-03T11:49:55;11.90;75.20
22145;DHT22;11238;48.730;11.566;2023-03-03T11:52:54;12.00;73.60
22145;DHT22;11238;48.730;11.566;2023-03-03T11:55:37;12.30;75.20
22145;DHT22;11238;48.730;11.566;2023-03-03T11:58:21;12.60;74.00
22145;DHT22;11238;48.730;11.566;2023-03-03T12:03:52;12.80;72.40
22145;DHT22;11238;48.730;11.566;2023-03-03T12:12:24;12.00;70.90
22145;DHT22;11238;48.730;11.566;2023-03-03T12:15:01;11.70;75.60
22145;DHT22;11238;48.730;11.566;2023-03-03T12:23:37;11.30;75.20
22145;DHT22;11238;48.730;11.566;2023-03-03T12:29:26;12.40;78.10
22145;DHT22;11238;48.730;11.566;2023-03-03T12:46:12;11.80;74.60
22145;DHT22;11238;48.730;11.566;2023-03-03T12:48:42;12.40;74.20
22145;DHT22;11238;48.730;11.566;2023-03-03T12:54:13;12.60;69.50
22145;DHT22;11238;48.730;11.566;2023-03-03T13:02:50;12.30;70.00
22145;DHT22;11238;48.730;11.566;2023-03-03T13:05:32;12.00;69.40
22145;DHT22;11238;48.730;11.566;2023-03-03T13:19:03;13.00;66.20
22145;DHT22;11238;48.730;11.566;2023-03-03T13:21:34;13.10;68.80
22145;DHT22;11238;48.730;11.566;2023-03-03T13:24:59;13.20;68.00
22145;DHT22;11238;48.730;11.566;2023-03-03T13:27:20;13.50;67.50
22145;DHT22;11238;48.730;11.566;2023-03-03T13:30:03;14.00;68.10
22145;DHT22;11238;48.730;11.566;2023-03-03T13:35:40;13.70;65.10
22145;DHT22;11238;48.730;11.566;2023-03-03T13:38:13;14.00;65.20
22145;DHT22;11238;48.730;11.566;2023-03-03T13:51:51;15.20;64.60
22145;DHT22;11238;48.730;11.566;2023-03-03T14:17:01;15.20;64.10
22145;DHT22;11238;48.730;11.566;2023-03-03T14:20:23;15.20;63.30
22145;DHT22;11238;48.730;11.566;2023-03-03T14:25:18;13.70;63.20
22145;DHT22;11238;48.730;11.566;2023-03-03T14:35:42;14.10;65.90
22145;DHT22;11238;48.730;11.566;2023-03-03T14:38:13;14.40;63.90
22145;DHT22;11238;48.730;11.566;2023-03-03T14:40:40;14.10;62.50
22145;DHT22;11238;48.730;11.566;2023-03-03T14:43:32;14.40;64.60
22145;DHT22;11238;48.730;11.566;2023-03-03T14:48:56;14.60;63.20
22145;DHT22;11238;48.730;11.566;2023-03-03T14:51:46;14.30;62.60
22145;DHT22;11238;48.730;11.566;2023-03-03T15:05:24;14.80;64.80
22145;DHT22;11238;48.730;11.566;2023-03-03T15:18:25;14.90;63.80
22145;DHT22;11238;48.730;11.566;2023-03-03T15:21:03;14.50;62.40
22145;DHT22;11238;48.730;11.566;2023-03-03T15:28:57;14.30;64.40
22145;DHT22;11238;48.730;11.566;2023-03-03T15:31:51;14.00;64.10
22145;DHT22;11238;48.730;11.566;2023-03-03T15:34:41;13.80;65.70
22145;DHT22;11238;48.730;11.566;2023-03-03T15:45:18;12.90;67.60
22145;DHT22;11238;48.730;11.566;2023-03-03T15:47:56;12.70;68.10
22145;DHT22;11238;48.730;11.566;2023-03-03T15:50:32;12.60;69.70
22145;DHT22;11238;48.730;11.566;2023-03-03T15:56:24;12.40;68.70
22145;DHT22;11238;48.730;11.566;2023-03-03T15:59:24;12.20;69.30
22145;DHT22;11238;48.730;11.566;2023-03-03T16:02:12;12.20;70.20
22145;DHT22;11238;48.730;11.566;2023-03-03T16:05:25;12.10;70.20
22145;DHT22;11238;48.730;11.566;2023-03-03T16:08:18;12.10;70.50
22145;DHT22;11238;48.730;11.566;2023-03-03T16:13:58;11.90;71.30
22145;DHT22;11238;48.730;11.566;2023-03-03T16:22:55;11.80;72.10
22145;DHT22;11238;48.730;11.566;2023-03-03T16:25:26;11.80;72.90
22145;DHT22;11238;48.730;11.566;2023-03-03T16:28:09;11.70;73.50
22145;DHT22;11238;48.730;11.566;2023-03-03T16:33:37;11.60;74.40
22145;DHT22;11238;48.730;11.566;2023-03-03T16:36:27;11.50;74.80
22145;DHT22;11238;48.730;11.566;2023-03-03T16:39:22;11.30;75.90
22145;DHT22;11238;48.730;11.566;2023-03-03T16:47:28;11.10;76.80
22145;DHT22;11238;48.730;11.566;2023-03-03T16:53:34;10.90;76.60
22145;DHT22;11238;48.730;11.566;2023-03-03T16:56:17;10.80;77.40
22145;DHT22;11238;48.730;11.566;2023-03-03T17:04:26;10.50;78.90
22145;DHT22;11238;48.730;11.566;2023-03-03T17:07:10;10.40;79.60
22145;DHT22;11238;48.730;11.566;2023-03-03T17:09:54;10.30;81.70
22145;DHT22;11238;48.730;11.566;2023-03-03T17:12:45;10.20;80.50
22145;DHT22;11238;48.730;11.566;2023-03-03T17:18:13;9.70;81.20
22145;DHT22;11238;48.730;11.566;2023-03-03T17:20:47;9.60;82.00
22145;DHT22;11238;48.730;11.566;2023-03-03T17:26:25;9.30;82.40
22145;DHT22;11238;48.730;11.566;2023-03-03T17:29:19;9.20;82.90
22145;DHT22;11238;48.730;11.566;2023-03-03T17:34:43;9.20;83.50
22145;DHT22;11238;48.730;11.566;2023-03-03T17:37:33;9.10;83.60
22145;DHT22;11238;48.730;11.566;2023-03-03T17:43:04;8.80;84.60
22145;DHT22;11238;48.730;11.566;2023-03-03T17:45:39;8.60;85.40
22145;DHT22;11238;48.730;11.566;2023-03-03T17:51:03;8.40;86.20
22145;DHT22;11238;48.730;11.566;2023-03-03T17:56:44;8.20;87.20
22145;DHT22;11238;48.730;11.566;2023-03-03T18:05:21;8.00;87.90
22145;DHT22;11238;48.730;11.566;2023-03-03T18:13:42;7.70;88.30
22145;DHT22;11238;48.730;11.566;2023-03-03T18:19:01;7.70;89.40
22145;DHT22;11238;48.730;11.566;2023-03-03T18:24:37;7.60;90.00
